Holts Summit, Missouri
Current Conditions -  °F | °C
As of 11:53 AM on Monday 24 Nov 2014 (Local Time) from KJEF Reporting Station
Overcast Overcast  
Wind Chill: -1°   Ceiling: 3700
Heat Index:   Visibility: 10mi
Dew Point: -4°   Wind: 16mph
Humidity: 57%   Direction: 270°W
Pressure: 29.75"   Gusts: 26mph
Location:  38.64°N, 92.12°W
Report Text: KJEF 241753Z 27014G23KT 10SM OVC037 04/M04 A2975 RMK AO2 SLP065 T00391039 10039 20017 51022
Loading
Personal Weather Stations






























Interactive Weather Map New forecast layout! Learn more

10-Day Weather Forecast

Advertisements
Track Severe Weather on mobile